Mexico V — XCKR — position and weather

sailwx.info

Track history (hours):
 
Tides and Currents Weather Stations Pressure Air Temp Water Temp Dewpoint Dewpoint Depression Visibility Wind Speed Wind Dir Waves Ship Positions

Mexico V

Last reported at 2016-Feb-07 12:18 UTC. Time now 2016-Feb-07 13:12 UTC.
Position N 20°34' W 086°60'.

Length 40 m; draft 1.5 m.

Type: Ship. MMSI: 345110005.

Date/timePositionNaut miles runAvg speedWind from/ knotsBaromVisibWave heightAir tempDewpointWater temp
2016-Feb-07 12:18N 20°34' W 086°60'1 0.0
2016-Feb-06 02:34N 20°32' W 086°59'1 1.0
2016-Feb-06 01:19N 20°33' W 086°60'4 5.1
2016-Feb-06 00:34N 20°30' W 086°58'4 1.4
2016-Feb-05 21:21N 20°34' W 087°00'4 5.0
2016-Feb-05 20:32N 20°31' W 086°57'3 3.6
2016-Feb-05 19:33N 20°33' W 087°00'4 1.1
2016-Feb-05 15:33N 20°29' W 086°58'1 0.7
2016-Feb-05 14:33N 20°29' W 086°59'3 2.7
2016-Feb-05 13:34N 20°32' W 086°58'2 2.1
2016-Feb-05 12:23N 20°34' W 087°00'4 5.1
2016-Feb-05 11:33N 20°31' W 086°57'0 0.0
2016-Feb-05 01:30N 20°31' W 086°57'0 0.0
2016-Feb-04 23:33N 20°31' W 086°57'0 0.0
2016-Feb-04 22:33N 20°31' W 086°57'0 0.0
2016-Feb-04 21:33N 20°31' W 086°57'2 1.9
2016-Feb-04 20:33N 20°32' W 086°58'3 2.9
2016-Feb-04 19:24N 20°35' W 087°01'5 6.2
2016-Feb-04 18:33N 20°31' W 086°57'0 0.1
2016-Feb-04 17:34N 20°31' W 086°57'2 2.1
2016-Feb-04 16:33N 20°33' W 086°58'3 2.1
2016-Feb-04 15:20N 20°34' W 087°00'4 5.0
2016-Feb-04 14:33N 20°31' W 086°58'3 2.1
2016-Feb-04 13:16N 20°33' W 086°60'2 3.1
2016-Feb-04 12:33N 20°32' W 086°58'3 2.3
2016-Feb-04 11:19N 20°34' W 087°00'4 5.4
2016-Feb-04 10:34N 20°31' W 086°57'2 0.2
2016-Feb-04 02:33N 20°32' W 086°58'3 2.7
2016-Feb-04 01:25N 20°34' W 087°00'2 2.4
2016-Feb-04 00:33N 20°33' W 086°59'1 0.8
2016-Feb-03 23:20N 20°34' W 086°59'1 1.8
2016-Feb-03 22:33N 20°33' W 086°59'1 0.9
2016-Feb-03 21:12N 20°33' W 086°60'4 6.4
2016-Feb-03 20:34N 20°29' W 086°58'3 0.5
2016-Feb-03 14:33N 20°32' W 086°59'4 1.8
2016-Feb-03 12:33N 20°29' W 086°59'1 1.1
2016-Feb-03 11:34N 20°30' W 086°58'1 0.1
2016-Feb-03 01:08N 20°31' W 086°57'0 0.0
2016-Feb-02 23:34N 20°31' W 086°57'0 0.0
2016-Feb-02 22:34N 20°31' W 086°57'4 1.2
2016-Feb-02 19:18N 20°34' W 086°60'1 1.8
2016-Feb-02 18:34N 20°33' W 086°59'4 1.2
2016-Feb-02 15:33N 20°36' W 087°00'7 3.4
2016-Feb-02 13:33N 20°30' W 086°59'1 0.6
2016-Feb-02 12:33N 20°29' W 086°59'2 0.1
2016-Feb-01 21:33N 20°31' W 086°59'4 2.7
2016-Feb-01 20:09N 20°35' W 087°00'5 8.7
2016-Feb-01 19:33N 20°31' W 086°57'4 4.2
2016-Feb-01 18:34N 20°34' W 087°00'4 0.2
2016-Jan-31 17:33N 20°31' W 086°57'2 2.5
2016-Jan-31 16:34N 20°32' W 086°59'2 1.7
2016-Jan-31 15:20N 20°34' W 087°00'1 1.9
2016-Jan-31 14:33N 20°33' W 086°59'0 0.0
2016-Jan-30 17:33N 20°33' W 086°60'0 0.3
2016-Jan-30 16:17N 20°33' W 086°60'4 5.0
2016-Jan-30 15:33N 20°31' W 086°57'0 0.1
2016-Jan-30 14:33N 20°31' W 086°57'1 0.8
2016-Jan-30 13:33N 20°31' W 086°58'3 2.2
2016-Jan-30 12:18N 20°33' W 086°60'3 0.3
2016-Jan-30 01:33N 20°31' W 086°57'0 0.0
2016-Jan-29 23:33N 20°31' W 086°57'0 0.0
2016-Jan-29 21:33N 20°31' W 086°57'0 0.0
2016-Jan-29 20:33N 20°31' W 086°57'0 0.0
2016-Jan-29 19:33N 20°31' W 086°57'0 0.0
2016-Jan-29 18:33N 20°31' W 086°57'0 0.0
2016-Jan-29 17:33N 20°31' W 086°57'2 1.9
2016-Jan-29 16:33N 20°32' W 086°58'2 2.0
2016-Jan-29 15:21N 20°34' W 087°00'3 3.2
2016-Jan-29 14:33N 20°32' W 086°58'2 2.1
2016-Jan-29 13:21N 20°34' W 087°00'2 2.7
2016-Jan-29 12:33N 20°32' W 086°58'3 2.3
2016-Jan-29 11:21N 20°34' W 087°00'4 0.4
2016-Jan-29 02:33N 20°31' W 086°58'4 3.6
2016-Jan-29 01:29N 20°34' W 087°01'5 5.2
2016-Jan-29 00:34N 20°31' W 086°57'2 2.4
2016-Jan-28 23:34N 20°29' W 086°59'6 4.5
2016-Jan-28 22:13N 20°35' W 087°00'3 4.3
2016-Jan-28 21:33N 20°32' W 086°59'2 1.1
2016-Jan-28 20:07N 20°33' W 086°60'4 6.4
2016-Jan-28 19:33N 20°31' W 086°57'0 0.0
2016-Jan-28 18:33N 20°31' W 086°57'0 0.0
2016-Jan-28 17:33N 20°31' W 086°57'0 0.0
2016-Jan-28 15:33N 20°31' W 086°57'3 1.3
2016-Jan-28 13:33N 20°29' W 086°59'  
Track history (hours):
 
Tides and Currents Weather Stations Pressure Air Temp Water Temp Dewpoint Dewpoint Depression Visibility Wind Speed Wind Dir Waves Ship Positions

Mexico V

Last reported at 2016-Feb-07 12:18 UTC. Time now 2016-Feb-07 13:12 UTC.
Position N 20°34' W 086°60'.

Length 40 m; draft 1.5 m.

Type: Ship. MMSI: 345110005.

Date/timePositionNaut miles runAvg speedWind from/ knotsBaromVisibWave heightAir tempDewpointWater temp
2016-Feb-07 12:18N 20°34' W 086°60'1 0.0
2016-Feb-06 02:34N 20°32' W 086°59'1 1.0
2016-Feb-06 01:19N 20°33' W 086°60'4 5.1
2016-Feb-06 00:34N 20°30' W 086°58'4 1.4
2016-Feb-05 21:21N 20°34' W 087°00'4 5.0
2016-Feb-05 20:32N 20°31' W 086°57'3 3.6
2016-Feb-05 19:33N 20°33' W 087°00'4 1.1
2016-Feb-05 15:33N 20°29' W 086°58'1 0.7
2016-Feb-05 14:33N 20°29' W 086°59'3 2.7
2016-Feb-05 13:34N 20°32' W 086°58'2 2.1
2016-Feb-05 12:23N 20°34' W 087°00'4 5.1
2016-Feb-05 11:33N 20°31' W 086°57'0 0.0
2016-Feb-05 01:30N 20°31' W 086°57'0 0.0
2016-Feb-04 23:33N 20°31' W 086°57'0 0.0
2016-Feb-04 22:33N 20°31' W 086°57'0 0.0
2016-Feb-04 21:33N 20°31' W 086°57'2 1.9
2016-Feb-04 20:33N 20°32' W 086°58'3 2.9
2016-Feb-04 19:24N 20°35' W 087°01'5 6.2
2016-Feb-04 18:33N 20°31' W 086°57'0 0.1
2016-Feb-04 17:34N 20°31' W 086°57'2 2.1
2016-Feb-04 16:33N 20°33' W 086°58'3 2.1
2016-Feb-04 15:20N 20°34' W 087°00'4 5.0
2016-Feb-04 14:33N 20°31' W 086°58'3 2.1
2016-Feb-04 13:16N 20°33' W 086°60'2 3.1
2016-Feb-04 12:33N 20°32' W 086°58'3 2.3
2016-Feb-04 11:19N 20°34' W 087°00'4 5.4
2016-Feb-04 10:34N 20°31' W 086°57'2 0.2
2016-Feb-04 02:33N 20°32' W 086°58'3 2.7
2016-Feb-04 01:25N 20°34' W 087°00'2 2.4
2016-Feb-04 00:33N 20°33' W 086°59'1 0.8
2016-Feb-03 23:20N 20°34' W 086°59'1 1.8
2016-Feb-03 22:33N 20°33' W 086°59'1 0.9
2016-Feb-03 21:12N 20°33' W 086°60'4 6.4
2016-Feb-03 20:34N 20°29' W 086°58'3 0.5
2016-Feb-03 14:33N 20°32' W 086°59'4 1.8
2016-Feb-03 12:33N 20°29' W 086°59'1 1.1
2016-Feb-03 11:34N 20°30' W 086°58'1 0.1
2016-Feb-03 01:08N 20°31' W 086°57'0 0.0
2016-Feb-02 23:34N 20°31' W 086°57'0 0.0
2016-Feb-02 22:34N 20°31' W 086°57'4 1.2
2016-Feb-02 19:18N 20°34' W 086°60'1 1.8
2016-Feb-02 18:34N 20°33' W 086°59'4 1.2
2016-Feb-02 15:33N 20°36' W 087°00'7 3.4
2016-Feb-02 13:33N 20°30' W 086°59'1 0.6
2016-Feb-02 12:33N 20°29' W 086°59'2 0.1
2016-Feb-01 21:33N 20°31' W 086°59'4 2.7
2016-Feb-01 20:09N 20°35' W 087°00'5 8.7
2016-Feb-01 19:33N 20°31' W 086°57'4 4.2
2016-Feb-01 18:34N 20°34' W 087°00'4 0.2
2016-Jan-31 17:33N 20°31' W 086°57'2 2.5
2016-Jan-31 16:34N 20°32' W 086°59'2 1.7
2016-Jan-31 15:20N 20°34' W 087°00'1 1.9
2016-Jan-31 14:33N 20°33' W 086°59'0 0.0
2016-Jan-30 17:33N 20°33' W 086°60'0 0.3
2016-Jan-30 16:17N 20°33' W 086°60'4 5.0
2016-Jan-30 15:33N 20°31' W 086°57'0 0.1
2016-Jan-30 14:33N 20°31' W 086°57'1 0.8
2016-Jan-30 13:33N 20°31' W 086°58'3 2.2
2016-Jan-30 12:18N 20°33' W 086°60'3 0.3
2016-Jan-30 01:33N 20°31' W 086°57'0 0.0
2016-Jan-29 23:33N 20°31' W 086°57'0 0.0
2016-Jan-29 21:33N 20°31' W 086°57'0 0.0
2016-Jan-29 20:33N 20°31' W 086°57'0 0.0
2016-Jan-29 19:33N 20°31' W 086°57'0 0.0
2016-Jan-29 18:33N 20°31' W 086°57'0 0.0
2016-Jan-29 17:33N 20°31' W 086°57'2 1.9
2016-Jan-29 16:33N 20°32' W 086°58'2 2.0
2016-Jan-29 15:21N 20°34' W 087°00'3 3.2
2016-Jan-29 14:33N 20°32' W 086°58'2 2.1
2016-Jan-29 13:21N 20°34' W 087°00'2 2.7
2016-Jan-29 12:33N 20°32' W 086°58'3 2.3
2016-Jan-29 11:21N 20°34' W 087°00'4 0.4
2016-Jan-29 02:33N 20°31' W 086°58'4 3.6
2016-Jan-29 01:29N 20°34' W 087°01'5 5.2
2016-Jan-29 00:34N 20°31' W 086°57'2 2.4
2016-Jan-28 23:34N 20°29' W 086°59'6 4.5
2016-Jan-28 22:13N 20°35' W 087°00'3 4.3
2016-Jan-28 21:33N 20°32' W 086°59'2 1.1
2016-Jan-28 20:07N 20°33' W 086°60'4 6.4
2016-Jan-28 19:33N 20°31' W 086°57'0 0.0
2016-Jan-28 18:33N 20°31' W 086°57'0 0.0
2016-Jan-28 17:33N 20°31' W 086°57'0 0.0
2016-Jan-28 15:33N 20°31' W 086°57'3 1.3
2016-Jan-28 13:33N 20°29' W 086°59'  

Dump ship's entire track history